createdAt,value
2024-01-09T00:00:08.687Z,-4.30
2024-01-09T00:10:10.191Z,-4.35
2024-01-09T00:20:12.111Z,-4.46
2024-01-09T00:30:14.168Z,-4.45
2024-01-09T00:40:15.585Z,-4.44
2024-01-09T00:50:17.214Z,-4.50
2024-01-09T01:00:19.597Z,-4.55
2024-01-09T01:10:21.613Z,-4.60
2024-01-09T01:20:23.126Z,-4.66
2024-01-09T01:30:24.922Z,-4.76
2024-01-09T01:40:26.389Z,-4.78
2024-01-09T01:50:29.583Z,-4.76
2024-01-09T02:00:32.031Z,-4.78
2024-01-09T02:10:33.474Z,-4.91
2024-01-09T02:20:34.946Z,-4.96
2024-01-09T02:30:37.949Z,-4.90
2024-01-09T02:40:40.024Z,-4.92
2024-01-09T02:50:41.483Z,-5.13
2024-01-09T03:00:42.949Z,-5.09
2024-01-09T03:10:44.309Z,-5.00
2024-01-09T03:20:45.727Z,-5.23
2024-01-09T03:30:47.150Z,-5.18
2024-01-09T03:40:48.600Z,-5.20
2024-01-09T03:50:50.416Z,-5.18
2024-01-09T04:00:52.060Z,-5.33
2024-01-09T04:10:53.506Z,-5.24
2024-01-09T04:20:55.101Z,-5.25
2024-01-09T04:30:57.372Z,-5.27
2024-01-09T04:40:58.877Z,-5.31
2024-01-09T04:51:00.409Z,-5.28
2024-01-09T05:01:01.930Z,-5.38
2024-01-09T05:11:03.822Z,-5.34
2024-01-09T05:21:05.377Z,-5.36
2024-01-09T05:31:06.786Z,-5.39
2024-01-09T05:41:08.248Z,-5.42
2024-01-09T05:51:10.408Z,-5.47
2024-01-09T06:01:12.254Z,-5.54
2024-01-09T06:11:13.824Z,-5.47
2024-01-09T06:21:15.685Z,-5.55
2024-01-09T06:31:18.327Z,-5.59
2024-01-09T06:41:19.797Z,-5.64
2024-01-09T06:51:21.264Z,-5.79
2024-01-09T07:01:22.869Z,-5.63
2024-01-09T07:11:24.341Z,-5.63
2024-01-09T07:21:25.721Z,-5.61
2024-01-09T07:31:27.122Z,-5.75
2024-01-09T07:41:28.517Z,-5.74
2024-01-09T07:51:30.020Z,-5.72
2024-01-09T08:01:32.153Z,-5.76
2024-01-09T08:11:33.580Z,-5.75
2024-01-09T08:21:40.831Z,-5.77
2024-01-09T08:31:48.918Z,-5.68
2024-01-09T08:41:50.358Z,-5.64
2024-01-09T08:51:51.937Z,-5.57
2024-01-09T09:01:54.736Z,-5.49
2024-01-09T09:11:56.163Z,-5.45
2024-01-09T09:21:57.784Z,-5.42
2024-01-09T09:31:59.218Z,-5.24
2024-01-09T09:42:00.823Z,-5.13
2024-01-09T09:52:02.686Z,-5.02
2024-01-09T10:02:07.480Z,-4.91
2024-01-09T10:12:09.075Z,-4.76
2024-01-09T10:22:10.457Z,-4.66
2024-01-09T10:32:15.273Z,-4.53
2024-01-09T10:42:17.598Z,-4.41
2024-01-09T10:52:19.357Z,-4.20
2024-01-09T11:02:23.997Z,-4.11
2024-01-09T11:12:33.053Z,-3.95
2024-01-09T11:22:38.232Z,-3.85
2024-01-09T11:32:39.933Z,-3.68
2024-01-09T11:42:49.950Z,-3.51
2024-01-09T11:52:51.919Z,-3.36
2024-01-09T12:02:53.339Z,-3.19
2024-01-09T12:13:02.852Z,-3.10
2024-01-09T12:23:04.603Z,-3.03
2024-01-09T12:33:06.208Z,-2.83
2024-01-09T12:43:10.010Z,-2.69
2024-01-09T12:53:11.402Z,-2.59
2024-01-09T13:03:12.845Z,-2.45
2024-01-09T13:13:14.294Z,-2.35
2024-01-09T13:33:20.131Z,-2.07
2024-01-09T13:43:21.786Z,-1.99
2024-01-09T13:53:27.388Z,-1.93
2024-01-09T14:03:31.249Z,-1.88
2024-01-09T14:13:32.707Z,-1.79
2024-01-09T14:23:34.795Z,-1.79
2024-01-09T14:33:36.280Z,-1.74
2024-01-09T14:43:39.737Z,-1.75
2024-01-09T14:53:42.633Z,-1.75
2024-01-09T15:03:45.736Z,-1.77
2024-01-09T15:13:47.181Z,-1.81
2024-01-09T15:23:52.130Z,-1.87
2024-01-09T15:33:53.613Z,-1.87
2024-01-09T15:43:55.280Z,-1.94
2024-01-09T15:53:56.711Z,-1.96
2024-01-09T16:03:58.319Z,-2.11
2024-01-09T16:13:59.735Z,-2.12
2024-01-09T16:24:01.166Z,-2.18
2024-01-09T16:34:02.774Z,-2.22
2024-01-09T16:44:04.845Z,-2.24
2024-01-09T16:54:06.282Z,-2.27
2024-01-09T17:04:08.265Z,-2.31
2024-01-09T17:14:09.758Z,-2.29
2024-01-09T17:24:11.548Z,-2.40
2024-01-09T17:34:12.986Z,-2.44
2024-01-09T17:44:15.140Z,-2.38
2024-01-09T17:54:16.545Z,-2.43
2024-01-09T18:04:20.363Z,-2.45
2024-01-09T18:14:21.921Z,-2.59
2024-01-09T18:24:24.082Z,-2.61
2024-01-09T18:34:25.761Z,-2.70
2024-01-09T18:44:27.998Z,-2.81
2024-01-09T18:54:29.648Z,-2.83
2024-01-09T19:04:32.824Z,-2.98
2024-01-09T19:14:34.246Z,-3.13
2024-01-09T19:24:39.121Z,-3.09
2024-01-09T19:34:43.496Z,-3.30
2024-01-09T19:44:46.761Z,-3.37
2024-01-09T19:54:48.275Z,-3.33
2024-01-09T20:04:49.771Z,-3.45
2024-01-09T20:14:51.461Z,-3.56
2024-01-09T20:24:52.877Z,-3.47
2024-01-09T20:34:54.853Z,-3.74
2024-01-09T20:44:56.294Z,-3.80
2024-01-09T20:54:57.690Z,-3.74
2024-01-09T21:05:01.705Z,-3.74
2024-01-09T21:15:03.815Z,-3.81
2024-01-09T21:25:05.672Z,-3.86
2024-01-09T21:35:08.277Z,-3.89
2024-01-09T21:45:11.234Z,-3.92
2024-01-09T21:55:12.728Z,-3.97
2024-01-09T22:05:14.214Z,-4.05
2024-01-09T22:15:15.650Z,-3.94
2024-01-09T22:25:17.159Z,-4.00
2024-01-09T22:35:19.463Z,-3.98
2024-01-09T22:45:20.898Z,-3.99
2024-01-09T22:55:22.255Z,-4.01
2024-01-09T23:05:23.852Z,-4.00
2024-01-09T23:15:26.590Z,-4.08
2024-01-09T23:25:28.049Z,-4.05
2024-01-09T23:35:29.450Z,-4.13
2024-01-09T23:45:30.856Z,-4.11
2024-01-09T23:55:32.286Z,-4.15
